Time;durP1;ratioP1;P1;durP2;ratioP2;P2;SDS_P1;SDS_P2;PMS_P1;PMS_P2;Temp;Humidity;BMP_temperature;BMP_pressure;BME280_temperature;BME280_humidity;BME280_pressure;Samples;Min_cycle;Max_cycle;Signal;HPM_P1;HPM_P2
2021/04/01 00:00:17;;;;;;;4.57;3.23;;;8.70;99.90;;;;;;5051949;28;20201;-78
2021/04/01 00:02:52;;;;;;;4.93;2.67;;;8.70;99.90;;;;;;5051936;28;20630;-81
2021/04/01 00:05:18;;;;;;;7.30;3.80;;;8.60;99.90;;;;;;5051107;28;20204;-79
2021/04/01 00:07:44;;;;;;;4.60;2.83;;;8.60;99.90;;;;;;5051743;28;20198;-79
2021/04/01 00:10:14;;;;;;;3.50;2.67;;;8.60;99.90;;;;;;5051558;28;20182;-79
2021/04/01 00:12:40;;;;;;;6.97;4.07;;;8.50;99.90;;;;;;5043071;28;20193;-79
2021/04/01 00:15:08;;;;;;;5.13;3.43;;;8.60;99.90;;;;;;5051340;28;20178;-81
2021/04/01 00:17:35;;;;;;;4.27;2.67;;;8.70;99.90;;;;;;5051756;28;20241;-79
2021/04/01 00:20:01;;;;;;;4.87;3.43;;;8.80;99.90;;;;;;5051156;28;20242;-79
2021/04/01 00:22:27;;;;;;;5.57;3.43;;;8.70;99.90;;;;;;5051587;28;20582;-79
2021/04/01 00:24:52;;;;;;;7.47;4.37;;;8.70;99.90;;;;;;5050710;28;20182;-79
2021/04/01 00:27:18;;;;;;;6.03;4.10;;;8.70;99.90;;;;;;5051086;28;20611;-79
2021/04/01 00:29:43;;;;;;;4.83;3.97;;;8.80;99.90;;;;;;5051806;28;20202;-80
2021/04/01 00:32:09;;;;;;;4.63;3.00;;;8.80;99.90;;;;;;5051263;28;20197;-79
2021/04/01 00:34:35;;;;;;;5.63;3.37;;;8.80;99.90;;;;;;5051345;28;20639;-79
2021/04/01 00:37:00;;;;;;;8.73;4.47;;;8.80;99.90;;;;;;5052128;28;20224;-80
2021/04/01 00:39:26;;;;;;;5.23;2.90;;;8.80;99.90;;;;;;5051744;28;20186;-80
2021/04/01 00:41:51;;;;;;;4.30;3.40;;;8.90;99.90;;;;;;5054287;28;20201;-79
2021/04/01 00:44:17;;;;;;;5.93;3.30;;;8.90;99.90;;;;;;5052004;28;20204;-79
2021/04/01 00:46:47;;;;;;;3.83;3.03;;;8.90;99.90;;;;;;5052260;28;20695;-81
2021/04/01 00:49:14;;;;;;;3.37;2.70;;;8.90;99.90;;;;;;5053971;28;20183;-79
2021/04/01 00:51:40;;;;;;;4.53;3.10;;;8.90;99.90;;;;;;5052786;28;20177;-81
2021/04/01 00:54:05;;;;;;;5.53;3.40;;;8.90;99.90;;;;;;5054155;28;20182;-80
2021/04/01 00:56:32;;;;;;;4.60;2.77;;;8.90;99.90;;;;;;5052096;28;20564;-79
2021/04/01 00:58:58;;;;;;;5.63;2.60;;;8.80;99.90;;;;;;5052107;28;20602;-80
2021/04/01 01:03:52;;;;;;;3.90;3.00;;;8.80;99.90;;;;;;5053678;28;20198;-81
2021/04/01 01:06:18;;;;;;;4.93;3.00;;;8.80;99.90;;;;;;5049014;28;20679;-81
2021/04/01 01:08:43;;;;;;;5.30;3.13;;;8.90;99.90;;;;;;5048458;28;20186;-79
2021/04/01 01:11:09;;;;;;;4.43;3.20;;;8.80;99.90;;;;;;5048452;28;20240;-80
2021/04/01 01:13:35;;;;;;;4.93;3.20;;;8.80;99.90;;;;;;5049636;28;20194;-79
2021/04/01 01:16:01;;;;;;;4.83;3.40;;;8.80;99.90;;;;;;5048972;28;20208;-82
2021/04/01 01:18:27;;;;;;;4.20;2.50;;;8.80;99.90;;;;;;5050099;28;20190;-81
2021/04/01 01:20:57;;;;;;;4.37;2.80;;;8.80;99.90;;;;;;5049171;28;20572;-79
2021/04/01 01:23:22;;;;;;;4.00;2.70;;;8.80;99.90;;;;;;5051034;28;20299;-79
2021/04/01 01:25:48;;;;;;;4.43;2.80;;;8.80;99.90;;;;;;5049268;28;20233;-79
2021/04/01 01:28:14;;;;;;;4.83;2.90;;;8.80;99.90;;;;;;5047591;28;20660;-79
2021/04/01 01:30:40;;;;;;;4.77;2.90;;;8.90;99.90;;;;;;5046639;28;20182;-79
2021/04/01 01:33:07;;;;;;;3.33;2.50;;;9.00;99.90;;;;;;5047322;28;20202;-79
2021/04/01 01:35:54;;;;;;;4.70;3.37;;;9.00;99.90;;;;;;5050008;28;20190;-80
2021/04/01 01:38:20;;;;;;;8.87;3.20;;;9.00;99.90;;;;;;5041348;28;20232;-79
2021/04/01 01:40:46;;;;;;;5.30;3.07;;;9.00;99.90;;;;;;5049056;28;20194;-79
2021/04/01 01:43:13;;;;;;;5.63;3.00;;;8.90;99.90;;;;;;5050048;28;20219;-80
2021/04/01 01:45:40;;;;;;;5.03;3.27;;;8.80;99.90;;;;;;5051357;28;20278;-78
2021/04/01 01:48:07;;;;;;;3.43;3.10;;;8.70;99.90;;;;;;5051463;28;20233;-80
2021/04/01 01:50:34;;;;;;;4.20;3.40;;;8.70;99.90;;;;;;5049315;28;20182;-81
2021/04/01 01:53:01;;;;;;;4.13;2.87;;;8.70;99.90;;;;;;5051607;28;20190;-81
2021/04/01 01:55:27;;;;;;;5.20;2.87;;;8.70;99.90;;;;;;5049409;28;20182;-80
2021/04/01 01:57:53;;;;;;;5.47;2.73;;;8.70;99.90;;;;;;5049617;28;20301;-80
2021/04/01 02:00:30;;;;;;;3.43;3.13;;;8.60;99.90;;;;;;5051284;28;21346;-79
2021/04/01 02:02:58;;;;;;;9.17;3.43;;;8.60;99.90;;;;;;5041804;28;20204;-80
2021/04/01 02:05:25;;;;;;;7.93;3.67;;;8.60;99.90;;;;;;5048463;28;20202;-81
2021/04/01 02:07:52;;;;;;;5.53;3.57;;;8.60;99.90;;;;;;5050671;28;20276;-80
2021/04/01 02:10:27;;;;;;;4.03;2.70;;;8.70;99.90;;;;;;5049524;28;20195;-78
2021/04/01 02:12:54;;;;;;;4.87;3.13;;;8.70;99.90;;;;;;5051098;28;20276;-80
2021/04/01 02:15:24;;;;;;;5.10;3.27;;;8.70;99.90;;;;;;5049577;28;20194;-80
2021/04/01 02:17:50;;;;;;;3.93;3.10;;;8.80;99.90;;;;;;5049266;28;20210;-80
2021/04/01 02:20:15;;;;;;;5.47;3.10;;;8.90;99.90;;;;;;5049533;28;20182;-81
2021/04/01 02:22:41;;;;;;;3.97;2.87;;;8.80;99.90;;;;;;5049918;28;20213;-79
2021/04/01 02:25:07;;;;;;;6.63;3.70;;;8.70;99.90;;;;;;5049926;28;20210;-81
2021/04/01 02:27:34;;;;;;;5.07;3.33;;;8.70;99.90;;;;;;5049391;28;20422;-81
2021/04/01 02:30:00;;;;;;;4.10;3.20;;;8.70;99.90;;;;;;5064296;28;20194;-79
2021/04/01 02:32:26;;;;;;;5.27;3.67;;;8.60;99.90;;;;;;5049350;28;20539;-80
2021/04/01 02:34:52;;;;;;;4.53;3.03;;;8.60;99.90;;;;;;5048405;28;20194;-79
2021/04/01 02:37:18;;;;;;;5.33;3.67;;;8.60;99.90;;;;;;5049393;28;20202;-79
2021/04/01 02:39:44;;;;;;;3.83;2.77;;;8.60;99.90;;;;;;5044003;28;20190;-79
2021/04/01 02:42:10;;;;;;;6.83;3.63;;;8.60;99.90;;;;;;5049420;28;20320;-79
2021/04/01 02:44:37;;;;;;;5.67;3.50;;;8.60;99.90;;;;;;5043891;28;20209;-79
2021/04/01 02:47:04;;;;;;;4.70;3.20;;;8.60;99.90;;;;;;5048230;28;20222;-80
2021/04/01 02:49:30;;;;;;;4.77;3.23;;;8.60;99.90;;;;;;5049056;28;20186;-80
2021/04/01 02:51:55;;;;;;;6.40;2.90;;;8.60;99.90;;;;;;5048003;28;21247;-79
2021/04/01 02:54:21;;;;;;;5.50;3.13;;;8.60;99.90;;;;;;5049477;28;20186;-79
2021/04/01 02:56:47;;;;;;;6.13;3.10;;;8.70;99.90;;;;;;5048407;28;20606;-79
2021/04/01 02:59:12;;;;;;;6.73;3.60;;;8.70;99.90;;;;;;5047236;28;20603;-79
2021/04/01 03:01:38;;;;;;;4.53;3.20;;;8.60;99.90;;;;;;5048476;28;20193;-80
2021/04/01 03:04:07;;;;;;;4.37;3.33;;;8.70;99.90;;;;;;5047507;28;20763;-79
2021/04/01 03:06:33;;;;;;;4.77;2.97;;;8.70;99.90;;;;;;5048828;28;20294;-79
2021/04/01 03:08:59;;;;;;;5.10;3.40;;;8.70;99.90;;;;;;5049030;28;20217;-81
2021/04/01 03:11:25;;;;;;;6.00;3.53;;;8.70;99.90;;;;;;5046268;28;20580;-79
2021/04/01 03:13:50;;;;;;;3.77;2.47;;;8.70;99.90;;;;;;5047200;28;20182;-79
2021/04/01 03:16:16;;;;;;;4.67;3.07;;;8.70;99.90;;;;;;5047223;28;20182;-79
2021/04/01 03:18:41;;;;;;;4.67;3.17;;;8.80;99.90;;;;;;5049009;28;20174;-80
2021/04/01 03:21:07;;;;;;;4.40;3.17;;;8.80;99.90;;;;;;5047798;28;20190;-81
2021/04/01 03:23:33;;;;;;;3.43;2.93;;;8.70;99.90;;;;;;5047136;28;20205;-79
2021/04/01 03:25:58;;;;;;;4.83;2.93;;;8.70;99.90;;;;;;5047825;28;20619;-79
2021/04/01 03:28:24;;;;;;;4.40;3.17;;;8.80;99.90;;;;;;5045673;28;20194;-80
2021/04/01 03:31:02;;;;;;;6.77;3.53;;;8.80;99.90;;;;;;5047297;28;20228;-81
2021/04/01 03:33:32;;;;;;;7.67;4.37;;;8.90;99.90;;;;;;5047651;28;20232;-79
2021/04/01 03:35:58;;;;;;;4.90;3.07;;;8.80;99.90;;;;;;5047445;28;20197;-80
2021/04/01 03:38:25;;;;;;;7.63;2.97;;;8.80;99.90;;;;;;5048027;28;20202;-79
2021/04/01 03:40:53;;;;;;;5.10;3.10;;;8.80;99.90;;;;;;5046628;28;20694;-79
2021/04/01 03:43:20;;;;;;;5.77;3.00;;;8.80;99.90;;;;;;5046013;28;20209;-80
2021/04/01 03:45:46;;;;;;;4.53;2.70;;;8.80;99.90;;;;;;5046842;28;20178;-79
2021/04/01 03:48:12;;;;;;;4.67;3.53;;;8.80;99.90;;;;;;5045905;28;20640;-79
2021/04/01 03:50:37;;;;;;;4.90;3.40;;;8.80;99.90;;;;;;5044866;28;20194;-79
2021/04/01 03:53:04;;;;;;;4.67;3.40;;;8.80;99.90;;;;;;5045069;28;20190;-79
2021/04/01 03:55:39;;;;;;;5.33;3.37;;;8.80;99.90;;;;;;5045076;28;20183;-79
2021/04/01 04:00:35;;;;;;;5.30;3.40;;;8.80;99.90;;;;;;5045648;28;20192;-80
2021/04/01 04:03:10;;;;;;;3.33;2.57;;;8.70;99.90;;;;;;5044170;28;20252;-79
2021/04/01 04:11:22;;;;;;;4.23;2.97;;;8.60;99.90;;;;;;5047985;28;20201;-80
2021/04/01 04:16:32;;;;;;;6.00;3.50;;;8.60;99.90;;;;;;5048387;28;20694;-79
2021/04/01 04:18:58;;;;;;;6.23;3.37;;;8.60;99.90;;;;;;5048289;28;20182;-80
2021/04/01 04:21:23;;;;;;;5.33;3.83;;;8.60;99.90;;;;;;5048510;28;20648;-79
2021/04/01 04:23:50;;;;;;;5.60;3.60;;;8.60;99.90;;;;;;5046773;28;20228;-79
2021/04/01 04:26:16;;;;;;;6.73;4.50;;;8.60;99.90;;;;;;5046789;28;20182;-80
2021/04/01 04:28:43;;;;;;;7.83;4.33;;;8.60;99.90;;;;;;5048793;28;20651;-79
2021/04/01 04:31:09;;;;;;;6.93;3.93;;;8.60;99.90;;;;;;5047179;28;20580;-79
2021/04/01 04:33:35;;;;;;;5.23;3.67;;;8.70;99.90;;;;;;5048860;28;20188;-79
2021/04/01 04:36:01;;;;;;;6.43;3.77;;;8.70;99.90;;;;;;5048304;28;20265;-79
2021/04/01 04:38:28;;;;;;;5.50;3.47;;;8.60;99.90;;;;;;5046702;28;20293;-79
2021/04/01 04:40:58;;;;;;;2.87;2.60;;;8.50;99.90;;;;;;5047057;28;20210;-80
2021/04/01 04:43:25;;;;;;;3.77;2.97;;;8.50;99.90;;;;;;5050776;28;20794;-80
2021/04/01 04:45:51;;;;;;;4.23;3.10;;;8.50;99.90;;;;;;5049817;28;20269;-79
2021/04/01 04:48:16;;;;;;;4.43;3.10;;;8.40;99.90;;;;;;5052228;28;20297;-80
2021/04/01 04:50:42;;;;;;;4.47;2.90;;;8.30;99.90;;;;;;5051416;28;20212;-81
2021/04/01 04:53:08;;;;;;;5.13;3.53;;;8.30;99.90;;;;;;5051830;28;20237;-78
2021/04/01 04:55:33;;;;;;;5.17;3.10;;;8.30;99.90;;;;;;5051780;28;20214;-80
2021/04/01 05:05:40;;;;;;;3.47;2.77;;;8.40;99.90;;;;;;5051391;28;20186;-79
2021/04/01 05:08:06;;;;;;;8.07;3.43;;;8.40;99.90;;;;;;5052186;28;20206;-79
2021/04/01 05:10:32;;;;;;;6.77;2.87;;;8.50;99.90;;;;;;5050189;28;20186;-80
2021/04/01 05:13:08;;;;;;;4.40;2.87;;;8.50;99.90;;;;;;5051226;28;21086;-79
2021/04/01 05:15:40;;;;;;;5.57;3.57;;;8.60;99.90;;;;;;5050679;28;20224;-80
2021/04/01 05:18:53;;;;;;;5.37;3.50;;;8.60;99.90;;;;;;5050440;28;20212;-80
2021/04/01 05:20:59;;;;;;;6.40;3.80;;;8.70;99.90;;;;;;5048438;28;20685;-79
2021/04/01 05:24:01;;;;;;;5.50;4.10;;;8.80;99.90;;;;;;5051279;28;20202;-79
2021/04/01 05:26:41;;;;;;;4.83;3.17;;;9.00;99.90;;;;;;5050208;28;20213;-80
2021/04/01 05:29:10;;;;;;;7.67;4.63;;;9.00;99.90;;;;;;5050412;28;20706;-78
2021/04/01 05:31:38;;;;;;;5.87;3.53;;;9.00;99.90;;;;;;5049220;28;20194;-79
2021/04/01 05:34:04;;;;;;;7.90;4.70;;;9.00;99.90;;;;;;5049261;28;20202;-79
2021/04/01 05:36:33;;;;;;;8.40;4.57;;;9.10;99.90;;;;;;5049339;28;20216;-81
2021/04/01 05:39:00;;;;;;;6.70;4.20;;;9.10;99.90;;;;;;5050540;28;20186;-81
2021/04/01 05:41:28;;;;;;;8.80;4.87;;;9.20;99.90;;;;;;5048147;28;20220;-79
2021/04/01 05:46:33;;;;;;;7.27;4.23;;;9.20;99.90;;;;;;5050411;28;20753;-79
2021/04/01 06:03:26;;;;;;;9.90;3.80;;;9.90;99.90;;;;;;5050217;28;20694;-79
2021/04/01 06:06:06;;;;;;;6.87;4.30;;;10.10;99.90;;;;;;5048173;28;20340;-79
2021/04/01 06:08:51;;;;;;;5.33;3.60;;;10.20;99.90;;;;;;5050815;28;20174;-80
2021/04/01 06:11:21;;;;;;;5.80;3.70;;;10.20;99.90;;;;;;5049284;28;20250;-79
2021/04/01 06:14:07;;;;;;;7.00;3.93;;;10.40;99.90;;;;;;5048395;28;20181;-79
2021/04/01 06:16:45;;;;;;;6.83;4.70;;;10.40;99.90;;;;;;5047713;28;20210;-79
2021/04/01 06:19:17;;;;;;;9.03;5.03;;;10.60;99.90;;;;;;5049698;28;20174;-80
2021/04/01 06:21:44;;;;;;;7.93;5.07;;;10.60;99.90;;;;;;5047601;28;20203;-80
2021/04/01 06:24:26;;;;;;;6.40;4.90;;;10.70;99.90;;;;;;5049518;28;20217;-79
2021/04/01 06:27:17;;;;;;;7.63;4.80;;;10.80;99.90;;;;;;5048631;28;20209;-79
2021/04/01 06:30:12;;;;;;;7.97;5.20;;;10.80;99.90;;;;;;5047508;28;20178;-79
2021/04/01 06:32:38;;;;;;;7.23;4.90;;;10.90;99.90;;;;;;5049239;28;20186;-79
2021/04/01 06:35:53;;;;;;;10.23;6.03;;;11.10;99.90;;;;;;5048267;28;20191;-80
2021/04/01 06:40:43;;;;;;;10.40;5.73;;;11.40;99.90;;;;;;5049042;28;20182;-80
2021/04/01 06:43:17;;;;;;;8.20;5.03;;;11.70;99.90;;;;;;5048376;28;20308;-80
2021/04/01 06:45:56;;;;;;;10.60;5.43;;;11.80;99.90;;;;;;5049111;28;20186;-79
2021/04/01 06:48:25;;;;;;;6.87;4.87;;;11.90;99.90;;;;;;5048216;28;20857;-79
2021/04/01 06:51:10;;;;;;;8.23;5.17;;;12.00;99.90;;;;;;5063351;28;20190;-79
2021/04/01 06:54:01;;;;;;;9.17;5.77;;;12.10;99.90;;;;;;5049197;28;20181;-80
2021/04/01 07:02:22;;;;;;;8.30;5.13;;;12.60;99.90;;;;;;5047578;28;20178;-78
2021/04/01 07:04:52;;;;;;;6.25;4.65;;;12.80;99.90;;;;;;5044275;28;20196;-77
2021/04/01 07:07:21;;;;;;;6.03;4.47;;;13.10;99.90;;;;;;5046559;28;20190;-80
2021/04/01 07:12:28;;;;;;;7.55;4.63;;;13.30;99.90;;;;;;5046277;28;20182;-79
2021/04/01 07:15:24;;;;;;;9.90;4.90;;;13.40;99.90;;;;;;5043788;28;20189;-78
2021/04/01 07:18:00;;;;;;;9.80;6.25;;;13.50;99.90;;;;;;5044388;28;20217;-78
2021/04/01 07:48:23;;;;;;;8.95;4.75;;;13.50;99.90;;;;;;5042530;28;20264;-76
2021/04/01 07:50:49;;;;;;;7.40;5.07;;;13.40;99.90;;;;;;5042273;28;20178;-77
2021/04/01 07:53:26;;;;;;;8.65;5.28;;;13.60;99.90;;;;;;5042342;28;20190;-76
2021/04/01 08:01:34;;;;;;;10.98;6.25;;;14.00;99.90;;;;;;5043544;28;20193;-76
2021/04/01 08:04:10;;;;;;;9.68;5.40;;;14.20;99.90;;;;;;5043702;28;20216;-76
2021/04/01 08:06:44;;;;;;;10.95;5.80;;;14.30;99.90;;;;;;5043393;28;20222;-77
2021/04/01 08:09:17;;;;;;;9.57;6.60;;;14.30;99.90;;;;;;5043848;28;20189;-77
2021/04/01 08:11:46;;;;;;;11.38;6.47;;;14.40;99.90;;;;;;5043355;28;20244;-77
2021/04/01 08:14:24;;;;;;;8.07;6.00;;;14.50;99.90;;;;;;5043446;28;20185;-77
2021/04/01 08:17:26;;;;;;;9.48;5.68;;;14.70;99.90;;;;;;5044923;28;20581;-77
2021/04/01 08:20:02;;;;;;;7.53;5.78;;;14.90;99.90;;;;;;5046845;28;20741;-77
2021/04/01 08:22:33;;;;;;;9.75;6.03;;;15.10;99.90;;;;;;5045130;28;20220;-76
2021/04/01 08:25:09;;;;;;;7.65;5.55;;;15.30;99.90;;;;;;5046814;28;20178;-75
2021/04/01 08:27:48;;;;;;;11.15;6.28;;;15.10;99.90;;;;;;5046550;28;20239;-77
2021/04/01 08:33:28;;;;;;;13.45;7.10;;;15.00;99.90;;;;;;5054844;28;20209;-76
2021/04/01 08:35:58;;;;;;;12.57;7.68;;;14.90;99.90;;;;;;5045784;28;20243;-76
2021/04/01 08:38:28;;;;;;;12.15;7.50;;;14.80;99.90;;;;;;5046495;28;20530;-76
2021/04/01 08:40:58;;;;;;;11.65;6.53;;;14.90;99.90;;;;;;5047619;28;20249;-81
2021/04/01 08:44:02;;;;;;;12.82;7.43;;;14.80;99.90;;;;;;5049539;28;20210;-83
2021/04/01 08:46:45;;;;;;;14.10;8.30;;;14.80;99.90;;;;;;5042361;28;20532;-78
2021/04/01 08:49:36;;;;;;;11.30;7.25;;;14.90;99.90;;;;;;5043974;28;20197;-79
2021/04/01 08:52:14;;;;;;;13.38;7.45;;;15.00;99.90;;;;;;5041257;28;20174;-77
2021/04/01 08:55:04;;;;;;;11.77;7.63;;;15.00;99.90;;;;;;5047881;28;20182;-77
2021/04/01 08:58:07;;;;;;;19.20;9.82;;;15.00;99.90;;;;;;5046924;28;20202;-77
2021/04/01 09:00:36;;;;;;;26.85;10.73;;;15.10;99.90;;;;;;5047723;28;20644;-77
2021/04/01 09:03:03;;;;;;;20.10;9.93;;;15.10;99.90;;;;;;5047201;28;20245;-78
2021/04/01 09:05:30;;;;;;;14.02;8.52;;;15.00;99.90;;;;;;5043383;28;20185;-77
2021/04/01 09:08:02;;;;;;;14.40;8.80;;;15.20;99.90;;;;;;5043580;28;20190;-77
2021/04/01 09:10:36;;;;;;;28.05;10.38;;;15.40;99.90;;;;;;5044689;28;21012;-77
2021/04/01 09:13:20;;;;;;;17.75;9.18;;;15.60;99.90;;;;;;5043218;28;20192;-78
2021/04/01 09:18:21;;;;;;;16.45;8.35;;;16.40;99.90;;;;;;5046515;28;20725;-77
2021/04/01 09:20:49;;;;;;;19.65;8.65;;;16.70;99.90;;;;;;5045686;28;20186;-77
2021/04/01 09:23:19;;;;;;;17.25;9.00;;;16.70;99.90;;;;;;5046534;28;20198;-77
2021/04/01 09:25:51;;;;;;;28.45;11.10;;;17.00;99.90;;;;;;5063035;28;20177;-76
2021/04/01 09:28:47;;;;;;;20.77;10.98;;;17.20;99.90;;;;;;5046702;28;20205;-78
2021/04/01 09:31:47;;;;;;;16.42;9.30;;;17.50;99.90;;;;;;5049136;28;20202;-76
2021/04/01 09:34:35;;;;;;;19.63;9.98;;;17.70;99.90;;;;;;5049437;28;20190;-76
2021/04/01 09:37:22;;;;;;;19.38;9.43;;;17.80;99.90;;;;;;5047770;28;20206;-77
2021/04/01 09:39:48;;;;;;;19.83;10.50;;;17.80;99.90;;;;;;5046553;28;20243;-78
2021/04/01 09:42:15;;;;;;;21.38;9.90;;;17.50;99.90;;;;;;5045625;28;20183;-77
2021/04/01 09:44:55;;;;;;;24.02;11.68;;;17.50;99.90;;;;;;5046312;28;20186;-79
2021/04/01 09:47:33;;;;;;;17.95;9.38;;;17.60;99.90;;;;;;5046395;28;20344;-78
2021/04/01 09:50:07;;;;;;;20.25;10.45;;;17.70;99.90;;;;;;5046400;28;20178;-78
2021/04/01 09:52:34;;;;;;;18.05;10.60;;;17.80;99.90;;;;;;5046533;28;20261;-77
2021/04/01 09:55:03;;;;;;;21.73;11.13;;;18.00;99.90;;;;;;5044230;28;20255;-77
2021/04/01 09:57:49;;;;;;;20.30;10.48;;;17.90;99.90;;;;;;5040907;28;20472;-77
2021/04/01 10:03:33;;;;;;;21.42;11.43;;;18.00;99.90;;;;;;5044417;28;20219;-77
2021/04/01 10:05:59;;;;;;;23.23;12.75;;;18.00;99.90;;;;;;5037094;28;20178;-77
2021/04/01 10:08:29;;;;;;;21.23;10.77;;;18.00;99.90;;;;;;5028840;28;20259;-77
2021/04/01 10:10:58;;;;;;;19.10;11.30;;;18.20;99.90;;;;;;5038892;28;20362;-78
2021/04/01 10:13:26;;;;;;;20.33;10.95;;;18.30;99.90;;;;;;5044512;28;20190;-78
2021/04/01 10:15:54;;;;;;;22.83;11.13;;;18.60;99.90;;;;;;5044654;28;20186;-77
2021/04/01 10:18:24;;;;;;;22.20;13.10;;;18.60;99.90;;;;;;5043842;28;20204;-77
2021/04/01 10:21:11;;;;;;;22.50;12.00;;;18.70;99.90;;;;;;5045087;28;20656;-77
2021/04/01 10:23:49;;;;;;;22.88;12.43;;;18.80;99.90;;;;;;5043914;28;20210;-78
2021/04/01 10:26:17;;;;;;;26.05;12.80;;;18.90;99.90;;;;;;5042877;28;20177;-77
2021/04/01 10:28:59;;;;;;;24.85;12.93;;;18.90;99.90;;;;;;5043757;28;20202;-77
2021/04/01 10:31:26;;;;;;;23.63;13.45;;;18.90;98.80;;;;;;5042175;28;20281;-77
2021/04/01 10:34:02;;;;;;;24.50;12.82;;;19.10;99.10;;;;;;5043624;28;20265;-79
2021/04/01 10:36:29;;;;;;;25.17;12.77;;;19.10;97.60;;;;;;5044436;28;20198;-77
2021/04/01 10:39:08;;;;;;;26.15;14.82;;;19.10;98.20;;;;;;5045497;28;20213;-76
2021/04/01 10:41:50;;;;;;;26.33;13.52;;;19.20;97.40;;;;;;5045320;28;20217;-77
2021/04/01 10:44:17;;;;;;;28.23;13.70;;;19.40;96.80;;;;;;5047172;28;20210;-78
2021/04/01 10:46:49;;;;;;;29.85;14.07;;;19.40;95.60;;;;;;5047752;28;20194;-77
2021/04/01 10:49:19;;;;;;;27.13;14.80;;;19.60;96.50;;;;;;5044960;28;20178;-76
2021/04/01 10:51:56;;;;;;;25.50;12.52;;;19.60;96.60;;;;;;5044923;28;20178;-77
2021/04/01 10:54:24;;;;;;;27.95;14.30;;;19.50;96.40;;;;;;5043556;28;20182;-76
2021/04/01 10:56:55;;;;;;;28.48;13.40;;;19.30;96.40;;;;;;5045042;28;20414;-77
2021/04/01 10:59:43;;;;;;;31.13;15.27;;;19.10;96.60;;;;;;5044929;28;20189;-77
2021/04/01 11:02:22;;;;;;;30.27;14.45;;;19.00;96.40;;;;;;5043359;28;20739;-78
2021/04/01 11:04:54;;;;;;;29.60;13.63;;;18.90;95.30;;;;;;5044754;28;20215;-77
2021/04/01 11:07:21;;;;;;;30.02;13.05;;;18.80;95.70;;;;;;5043878;28;20190;-77
2021/04/01 11:09:51;;;;;;;30.38;15.27;;;18.60;95.20;;;;;;5061229;28;20261;-77
2021/04/01 11:12:21;;;;;;;28.95;12.68;;;18.70;95.80;;;;;;5043924;28;20189;-77
2021/04/01 11:14:52;;;;;;;29.05;14.10;;;18.60;96.00;;;;;;5044398;28;20209;-77
2021/04/01 11:17:21;;;;;;;31.40;14.50;;;18.80;96.30;;;;;;5043921;28;20256;-77
2021/04/01 11:19:49;;;;;;;31.10;13.80;;;19.00;96.30;;;;;;5043580;28;20209;-78
2021/04/01 11:22:15;;;;;;;34.80;13.98;;;19.10;94.50;;;;;;5043709;28;20656;-78
2021/04/01 11:24:42;;;;;;;27.27;12.27;;;19.20;94.00;;;;;;5041796;28;20178;-77
2021/04/01 11:27:17;;;;;;;27.88;13.57;;;19.10;93.40;;;;;;5044190;28;20202;-76
2021/04/01 11:29:57;;;;;;;32.88;15.15;;;18.90;92.70;;;;;;5044216;28;20178;-77
2021/04/01 11:32:28;;;;;;;27.10;13.80;;;19.00;93.30;;;;;;5044143;28;20208;-77
2021/04/01 11:34:57;;;;;;;26.13;12.45;;;19.10;93.40;;;;;;5044478;28;20178;-77
2021/04/01 11:37:25;;;;;;;30.58;13.73;;;19.00;92.90;;;;;;5042906;28;20198;-77
2021/04/01 11:39:57;;;;;;;26.15;12.30;;;19.10;93.00;;;;;;5044701;28;20368;-77
2021/04/01 11:42:23;;;;;;;27.33;12.70;;;19.20;92.60;;;;;;5044379;28;20174;-78
2021/04/01 11:44:56;;;;;;;25.73;12.18;;;19.50;92.50;;;;;;5042571;28;20236;-77
2021/04/01 11:47:23;;;;;;;27.98;12.68;;;19.90;92.00;;;;;;5043469;28;20214;-78
2021/04/01 11:49:50;;;;;;;28.40;12.98;;;20.00;90.80;;;;;;5044334;28;20333;-78
2021/04/01 11:52:21;;;;;;;26.25;12.43;;;20.00;91.30;;;;;;5043918;28;20214;-77
2021/04/01 11:54:51;;;;;;;27.35;13.35;;;19.70;90.90;;;;;;5043908;28;20220;-77
2021/04/01 11:57:29;;;;;;;29.23;14.07;;;19.50;91.50;;;;;;5043243;28;20296;-78
2021/04/01 12:00:01;;;;;;;25.75;11.45;;;19.50;92.70;;;;;;5042818;28;20186;-78
2021/04/01 12:02:28;;;;;;;39.42;13.95;;;19.60;92.40;;;;;;5042168;28;20186;-77
2021/04/01 12:04:58;;;;;;;29.83;13.30;;;19.50;91.70;;;;;;5042983;28;20182;-78
2021/04/01 12:07:26;;;;;;;22.38;11.88;;;19.30;92.50;;;;;;5043246;28;20198;-78
2021/04/01 12:09:52;;;;;;;28.50;14.20;;;19.30;93.60;;;;;;5042721;28;20265;-78
2021/04/01 12:12:31;;;;;;;25.45;12.95;;;19.30;93.50;;;;;;5041041;28;20182;-79
2021/04/01 12:14:57;;;;;;;21.58;11.95;;;19.00;92.50;;;;;;5043079;28;20182;-78
2021/04/01 12:17:32;;;;;;;21.90;11.98;;;18.80;93.50;;;;;;5039757;28;20194;-78
2021/04/01 12:19:59;;;;;;;25.00;12.32;;;19.10;93.10;;;;;;5041249;28;20213;-77
2021/04/01 12:22:37;;;;;;;24.15;12.43;;;18.90;93.20;;;;;;5043257;28;20193;-78
2021/04/01 12:25:05;;;;;;;27.08;13.48;;;18.90;93.70;;;;;;5042875;28;20224;-77
2021/04/01 12:27:32;;;;;;;26.98;13.25;;;19.00;94.10;;;;;;5042033;28;20222;-77
2021/04/01 12:29:59;;;;;;;24.38;12.30;;;19.00;94.70;;;;;;5041849;28;20182;-77
2021/04/01 12:32:27;;;;;;;25.73;12.82;;;19.10;95.10;;;;;;5043109;28;20179;-78
2021/04/01 12:35:13;;;;;;;23.63;12.73;;;19.10;95.30;;;;;;5040468;28;20593;-78
2021/04/01 12:37:41;;;;;;;25.15;14.13;;;19.00;95.40;;;;;;5041450;28;20352;-78
2021/04/01 12:40:18;;;;;;;20.60;12.45;;;19.10;95.80;;;;;;5043076;28;20545;-77
2021/04/01 12:42:44;;;;;;;21.90;11.55;;;19.10;95.40;;;;;;5041900;28;20233;-77
2021/04/01 12:45:30;;;;;;;20.20;11.93;;;18.90;95.10;;;;;;5042508;28;20197;-77
2021/04/01 12:48:09;;;;;;;21.58;10.55;;;18.80;95.30;;;;;;5041511;28;20222;-77
2021/04/01 12:50:38;;;;;;;25.65;12.43;;;18.50;95.00;;;;;;5042436;28;20183;-77
2021/04/01 12:53:05;;;;;;;25.13;12.73;;;18.60;95.10;;;;;;5041014;28;20475;-77
2021/04/01 12:55:57;;;;;;;24.88;12.70;;;18.50;95.40;;;;;;5041730;28;20186;-77
2021/04/01 12:58:26;;;;;;;19.95;10.50;;;18.30;96.10;;;;;;5040983;28;20202;-77
2021/04/01 13:00:59;;;;;;;19.15;11.43;;;18.20;97.70;;;;;;5041283;28;20258;-78
2021/04/01 13:03:25;;;;;;;18.05;10.68;;;18.30;98.80;;;;;;5044985;28;20202;-80
2021/04/01 13:05:55;;;;;;;18.35;9.82;;;18.00;99.90;;;;;;5047781;28;20193;-77
2021/04/01 13:08:35;;;;;;;14.95;9.13;;;17.70;99.90;;;;;;5044730;28;20656;-78
2021/04/01 13:11:02;;;;;;;18.02;9.40;;;17.70;99.90;;;;;;5045478;28;20227;-77
2021/04/01 13:13:27;;;;;;;12.98;7.75;;;17.80;99.90;;;;;;5043257;28;20735;-77
2021/04/01 13:15:53;;;;;;;14.60;8.88;;;17.80;99.90;;;;;;5046332;28;20274;-78
2021/04/01 13:18:18;;;;;;;12.15;7.78;;;17.70;99.90;;;;;;5044954;28;20198;-77
2021/04/01 13:20:45;;;;;;;15.05;8.93;;;17.70;99.90;;;;;;5044791;28;20289;-78
2021/04/01 13:23:24;;;;;;;16.35;8.45;;;17.60;99.90;;;;;;5045731;28;20213;-78
2021/04/01 13:25:52;;;;;;;11.70;7.93;;;17.50;99.90;;;;;;5046673;28;20185;-77
2021/04/01 13:28:18;;;;;;;11.05;7.45;;;17.50;99.90;;;;;;5045246;28;20290;-78
2021/04/01 13:30:46;;;;;;;14.23;8.38;;;17.50;99.90;;;;;;5045798;28;20271;-78
2021/04/01 13:33:16;;;;;;;11.00;7.70;;;17.50;99.90;;;;;;5046083;28;20183;-78
2021/04/01 13:35:58;;;;;;;14.25;7.70;;;17.60;99.90;;;;;;5049481;28;20180;-78
2021/04/01 13:38:28;;;;;;;10.65;6.32;;;17.50;99.90;;;;;;5046033;28;20682;-78
2021/04/01 13:40:54;;;;;;;9.65;5.20;;;17.60;99.90;;;;;;5045665;28;20197;-78
2021/04/01 13:43:23;;;;;;;6.60;4.72;;;17.80;99.90;;;;;;5045392;28;20202;-77
2021/04/01 13:45:50;;;;;;;6.40;3.88;;;17.80;99.90;;;;;;5043298;28;20192;-77
2021/04/01 13:48:23;;;;;;;5.18;3.15;;;18.00;99.90;;;;;;5045012;28;20206;-78
2021/04/01 13:51:13;;;;;;;3.78;2.55;;;18.10;99.90;;;;;;5046357;28;20182;-77
2021/04/01 13:56:17;;;;;;;4.93;2.45;;;18.10;99.90;;;;;;5046484;28;20186;-77
2021/04/01 14:09:48;;;;;;;2.85;1.65;;;18.20;99.90;;;;;;5045795;28;20184;-77
2021/04/01 14:12:18;;;;;;;2.13;1.65;;;17.70;99.90;;;;;;5044569;28;20208;-78
2021/04/01 14:14:44;;;;;;;2.65;1.70;;;17.40;99.90;;;;;;5044570;28;20183;-77
2021/04/01 14:17:12;;;;;;;2.35;1.50;;;17.10;99.90;;;;;;5044178;28;20210;-77
2021/04/01 14:19:40;;;;;;;1.23;1.13;;;16.80;99.90;;;;;;5044481;28;20240;-76
2021/04/01 14:22:06;;;;;;;1.58;1.25;;;16.70;99.90;;;;;;5042651;28;20277;-77
2021/04/01 14:24:51;;;;;;;2.35;1.30;;;16.50;99.90;;;;;;5044185;28;20579;-77
2021/04/01 14:27:27;;;;;;;2.20;0.90;;;16.50;99.90;;;;;;5042184;28;20496;-77
2021/04/01 14:29:56;;;;;;;1.75;0.80;;;16.20;99.90;;;;;;5044686;28;20182;-78
2021/04/01 14:32:24;;;;;;;1.25;0.80;;;16.10;99.90;;;;;;5043675;28;20181;-77
2021/04/01 14:34:51;;;;;;;0.93;0.80;;;15.90;99.90;;;;;;5044803;28;20192;-78
2021/04/01 14:37:21;;;;;;;1.85;1.08;;;15.80;99.90;;;;;;5043951;28;20209;-78
2021/04/01 14:39:48;;;;;;;1.70;1.08;;;15.80;99.90;;;;;;5043643;28;20236;-78
2021/04/01 14:42:15;;;;;;;1.70;1.27;;;15.80;99.90;;;;;;5043603;28;20196;-76
2021/04/01 14:44:40;;;;;;;1.38;0.90;;;15.90;99.90;;;;;;5042840;28;20256;-77
2021/04/01 14:47:07;;;;;;;2.35;1.65;;;16.00;99.90;;;;;;5043905;28;20210;-78
2021/04/01 14:49:32;;;;;;;1.92;0.90;;;16.10;99.90;;;;;;5044422;28;20184;-77